createdAt,value
2023-01-26T00:00:53.908Z,33.90
2023-01-26T00:03:20.841Z,35.00
2023-01-26T00:05:47.673Z,35.70
2023-01-26T00:08:14.631Z,32.53
2023-01-26T00:10:42.270Z,33.90
2023-01-26T00:13:11.088Z,32.90
2023-01-26T00:15:37.713Z,33.27
2023-01-26T00:18:04.301Z,23.67
2023-01-26T00:20:30.919Z,32.33
2023-01-26T00:22:57.585Z,34.03
2023-01-26T00:25:24.261Z,33.43
2023-01-26T00:27:50.846Z,30.70
2023-01-26T00:30:17.756Z,31.20
2023-01-26T00:32:44.373Z,30.87
2023-01-26T00:35:11.028Z,29.93
2023-01-26T00:37:37.707Z,29.67
2023-01-26T00:40:04.727Z,26.57
2023-01-26T00:42:31.356Z,31.80
2023-01-26T00:44:57.901Z,30.30
2023-01-26T00:47:24.523Z,31.87
2023-01-26T00:49:51.127Z,28.87
2023-01-26T00:52:17.936Z,31.77
2023-01-26T00:54:44.469Z,30.83
2023-01-26T00:57:11.241Z,31.70
2023-01-26T00:59:37.926Z,30.13
2023-01-26T01:02:04.617Z,32.23
2023-01-26T01:04:31.383Z,31.50
2023-01-26T01:07:00.479Z,33.00
2023-01-26T01:09:27.159Z,32.70
2023-01-26T01:11:53.749Z,31.30
2023-01-26T01:14:20.336Z,34.03
2023-01-26T01:16:47.670Z,31.90
2023-01-26T01:19:16.446Z,32.17
2023-01-26T01:21:43.596Z,32.70
2023-01-26T01:24:11.401Z,30.13
2023-01-26T01:26:38.779Z,33.20
2023-01-26T01:29:06.158Z,33.93
2023-01-26T01:31:33.143Z,33.40
2023-01-26T01:33:59.809Z,31.20
2023-01-26T01:36:26.475Z,32.37
2023-01-26T01:38:53.095Z,32.93
2023-01-26T01:41:21.228Z,33.13
2023-01-26T01:43:47.792Z,33.10
2023-01-26T01:46:30.936Z,30.60
2023-01-26T01:49:03.410Z,31.03
2023-01-26T01:51:42.030Z,31.70
2023-01-26T01:54:12.958Z,32.87
2023-01-26T01:56:41.914Z,32.57
2023-01-26T01:59:09.881Z,33.87
2023-01-26T02:01:36.496Z,31.93
2023-01-26T02:04:05.574Z,33.13
2023-01-26T02:06:36.849Z,33.20
2023-01-26T02:09:04.543Z,32.43
2023-01-26T02:11:42.028Z,33.93
2023-01-26T02:14:09.901Z,33.30
2023-01-26T02:16:36.671Z,32.00
2023-01-26T02:19:03.904Z,32.60
2023-01-26T02:21:31.354Z,32.87
2023-01-26T02:24:17.073Z,33.10
2023-01-26T02:26:43.843Z,31.17
2023-01-26T02:29:11.816Z,33.40
2023-01-26T02:31:42.643Z,32.90
2023-01-26T02:34:09.403Z,32.37
2023-01-26T02:36:36.479Z,32.90
2023-01-26T02:39:04.502Z,33.87
2023-01-26T02:41:49.738Z,33.53
2023-01-26T02:44:16.410Z,34.40
2023-01-26T02:46:43.085Z,33.17
2023-01-26T02:49:28.498Z,33.37
2023-01-26T02:51:55.104Z,34.30
2023-01-26T02:54:40.463Z,33.60
2023-01-26T02:57:07.089Z,32.67
2023-01-26T02:59:33.880Z,32.70
2023-01-26T03:02:00.604Z,33.10
2023-01-26T03:04:27.978Z,33.37
2023-01-26T03:06:54.582Z,32.37
2023-01-26T03:09:21.165Z,34.17
2023-01-26T03:11:47.783Z,33.53
2023-01-26T03:14:16.475Z,34.50
2023-01-26T03:16:43.313Z,33.53
2023-01-26T03:19:31.495Z,33.63
2023-01-26T03:22:17.349Z,33.77
2023-01-26T03:25:02.548Z,33.80
2023-01-26T03:27:36.467Z,31.37
2023-01-26T03:30:03.154Z,31.97
2023-01-26T03:32:30.548Z,33.80
2023-01-26T03:34:58.464Z,31.20
2023-01-26T03:37:25.220Z,31.07
2023-01-26T03:40:19.710Z,31.77
2023-01-26T03:43:05.106Z,30.70
2023-01-26T03:45:50.441Z,31.00
2023-01-26T03:48:37.681Z,30.60
2023-01-26T03:51:24.143Z,28.17
2023-01-26T03:54:09.454Z,30.17
2023-01-26T03:56:36.006Z,29.00
2023-01-26T03:59:08.632Z,29.60
2023-01-26T04:01:38.129Z,28.97
2023-01-26T04:04:24.400Z,28.90
2023-01-26T04:07:09.531Z,27.37
2023-01-26T04:09:42.277Z,30.53
2023-01-26T04:12:10.396Z,28.40
2023-01-26T04:15:03.256Z,28.90
2023-01-26T04:17:48.452Z,28.60
2023-01-26T04:20:33.768Z,30.00
2023-01-26T04:23:00.735Z,30.50
2023-01-26T04:25:27.648Z,30.73
2023-01-26T04:27:56.538Z,30.40
2023-01-26T04:30:23.227Z,30.90
2023-01-26T04:32:51.185Z,30.57
2023-01-26T04:35:18.308Z,30.23
2023-01-26T04:37:47.640Z,29.50
2023-01-26T04:40:14.681Z,27.77
2023-01-26T04:42:41.516Z,30.70
2023-01-26T04:45:10.537Z,27.67
2023-01-26T04:47:37.483Z,29.10
2023-01-26T04:50:04.999Z,28.60
2023-01-26T04:52:32.149Z,28.47
2023-01-26T04:54:59.597Z,28.77
2023-01-26T04:57:26.241Z,28.57
2023-01-26T04:59:54.227Z,27.60
2023-01-26T05:02:21.025Z,28.43
2023-01-26T05:04:48.060Z,26.90
2023-01-26T05:07:15.169Z,29.43
2023-01-26T05:09:43.283Z,28.20
2023-01-26T05:12:34.911Z,29.03
2023-01-26T05:15:22.301Z,30.80
2023-01-26T05:18:09.393Z,27.97
2023-01-26T05:20:56.473Z,28.33
2023-01-26T05:23:27.649Z,26.70
2023-01-26T05:26:12.745Z,27.87
2023-01-26T05:28:50.766Z,25.23
2023-01-26T05:31:17.498Z,26.43
2023-01-26T05:33:44.794Z,26.63
2023-01-26T05:36:14.283Z,25.67
2023-01-26T05:38:41.754Z,25.50
2023-01-26T05:41:08.541Z,24.30
2023-01-26T05:43:47.828Z,26.67
2023-01-26T05:46:31.841Z,25.13
2023-01-26T05:48:58.546Z,22.10
2023-01-26T05:51:25.299Z,24.47
2023-01-26T05:53:52.040Z,25.63
2023-01-26T05:56:18.651Z,24.50
2023-01-26T05:58:50.115Z,25.67
2023-01-26T06:01:16.751Z,25.77
2023-01-26T06:03:49.990Z,25.83
2023-01-26T06:06:16.723Z,25.53
2023-01-26T06:08:50.878Z,26.90
2023-01-26T06:11:33.710Z,25.20
2023-01-26T06:14:10.494Z,26.17
2023-01-26T06:16:37.328Z,25.30
2023-01-26T06:19:05.088Z,25.57
2023-01-26T06:21:32.942Z,26.13
2023-01-26T06:23:59.900Z,22.80
2023-01-26T06:26:26.792Z,25.17
2023-01-26T06:28:55.348Z,21.57
2023-01-26T06:31:24.455Z,22.90
2023-01-26T06:33:51.983Z,24.37
2023-01-26T06:36:18.618Z,22.27
2023-01-26T06:38:48.670Z,25.07
2023-01-26T06:41:15.928Z,22.23
2023-01-26T06:43:46.185Z,23.67
2023-01-26T06:46:14.206Z,20.93
2023-01-26T06:48:40.911Z,20.87
2023-01-26T06:51:16.809Z,23.77
2023-01-26T06:53:48.514Z,22.33
2023-01-26T06:56:35.590Z,23.03
2023-01-26T06:59:28.074Z,23.30
2023-01-26T07:02:21.980Z,23.23
2023-01-26T07:04:49.590Z,23.10
2023-01-26T07:07:16.225Z,23.67
2023-01-26T07:09:42.893Z,25.30
2023-01-26T07:12:09.531Z,24.23
2023-01-26T07:14:36.281Z,23.13
2023-01-26T07:17:03.255Z,22.13
2023-01-26T07:19:31.402Z,23.13
2023-01-26T07:21:58.127Z,24.63
2023-01-26T07:24:25.338Z,22.90
2023-01-26T07:26:52.163Z,24.27
2023-01-26T07:29:18.848Z,25.20
2023-01-26T07:31:45.569Z,24.80
2023-01-26T07:34:12.334Z,23.70
2023-01-26T07:36:39.129Z,25.57
2023-01-26T07:39:08.308Z,25.17
2023-01-26T07:41:35.382Z,24.30
2023-01-26T07:44:12.554Z,24.40
2023-01-26T07:46:40.159Z,25.80
2023-01-26T07:49:07.379Z,24.47
2023-01-26T07:51:34.103Z,23.83
2023-01-26T07:54:01.064Z,24.53
2023-01-26T07:56:27.946Z,24.17
2023-01-26T07:58:55.289Z,25.37
2023-01-26T08:01:22.606Z,23.60
2023-01-26T08:03:53.541Z,24.90
2023-01-26T08:06:20.685Z,25.00
2023-01-26T08:08:51.477Z,24.60
2023-01-26T08:11:23.451Z,24.50
2023-01-26T08:13:50.286Z,24.53
2023-01-26T08:16:17.388Z,23.10
2023-01-26T08:18:45.868Z,27.07
2023-01-26T08:21:14.724Z,25.57
2023-01-26T08:23:41.389Z,24.53
2023-01-26T08:26:10.980Z,24.67
2023-01-26T08:28:37.841Z,25.13
2023-01-26T08:31:05.992Z,26.03
2023-01-26T08:33:34.036Z,25.80
2023-01-26T08:36:02.416Z,25.37
2023-01-26T08:38:30.817Z,26.40
2023-01-26T08:40:57.991Z,26.00
2023-01-26T08:43:24.925Z,27.30
2023-01-26T08:45:51.582Z,23.83
2023-01-26T08:48:18.342Z,22.37
2023-01-26T08:50:45.334Z,24.80
2023-01-26T08:53:12.053Z,24.40
2023-01-26T08:55:38.666Z,23.47
2023-01-26T08:58:05.463Z,22.57
2023-01-26T09:00:33.242Z,24.93
2023-01-26T09:03:05.075Z,23.80
2023-01-26T09:05:33.442Z,23.63
2023-01-26T09:08:00.128Z,25.50
2023-01-26T09:10:26.835Z,24.80
2023-01-26T09:12:53.562Z,24.03
2023-01-26T09:15:20.199Z,24.93
2023-01-26T09:17:50.397Z,25.93
2023-01-26T09:20:17.682Z,23.27
2023-01-26T09:22:44.725Z,23.70
2023-01-26T09:25:11.798Z,25.40
2023-01-26T09:27:38.688Z,26.00
2023-01-26T09:30:06.859Z,26.23
2023-01-26T09:32:33.978Z,25.20
2023-01-26T09:35:00.630Z,23.27
2023-01-26T09:37:27.337Z,24.00
2023-01-26T09:39:53.982Z,25.23
2023-01-26T09:42:29.444Z,25.50
2023-01-26T09:45:14.318Z,23.90
2023-01-26T09:48:19.724Z,25.03
2023-01-26T09:50:54.917Z,22.27
2023-01-26T09:53:28.806Z,22.17
2023-01-26T09:55:55.756Z,23.10
2023-01-26T09:58:32.682Z,22.03
2023-01-26T10:01:02.320Z,22.17
2023-01-26T10:03:31.293Z,23.17
2023-01-26T10:06:03.836Z,24.07
2023-01-26T10:08:49.711Z,22.97
2023-01-26T10:11:20.904Z,21.10
2023-01-26T10:13:51.756Z,23.07
2023-01-26T10:16:18.534Z,22.73
2023-01-26T10:18:56.658Z,23.77
2023-01-26T10:21:25.871Z,23.40
2023-01-26T10:23:52.749Z,24.07
2023-01-26T10:26:22.095Z,23.13
2023-01-26T10:28:51.027Z,20.73
2023-01-26T10:31:23.335Z,22.20
2023-01-26T10:33:59.587Z,22.80
2023-01-26T10:36:30.145Z,22.83
2023-01-26T10:39:15.411Z,23.30
2023-01-26T10:41:56.721Z,21.77
2023-01-26T10:44:32.781Z,20.03
2023-01-26T10:47:20.471Z,22.10
2023-01-26T10:49:47.252Z,21.60
2023-01-26T10:52:25.495Z,21.60
2023-01-26T10:55:10.715Z,19.20
2023-01-26T10:57:39.661Z,17.50
2023-01-26T11:00:10.768Z,19.27
2023-01-26T11:02:37.584Z,20.40
2023-01-26T11:05:07.528Z,18.37
2023-01-26T11:07:38.682Z,19.73
2023-01-26T11:10:33.433Z,16.87
2023-01-26T11:13:08.526Z,19.93
2023-01-26T11:15:38.781Z,20.83
2023-01-26T11:18:16.301Z,18.93
2023-01-26T11:20:58.333Z,18.37
2023-01-26T11:23:51.269Z,19.63
2023-01-26T11:26:26.980Z,20.10
2023-01-26T11:29:11.884Z,19.93
2023-01-26T11:31:59.704Z,17.47
2023-01-26T11:34:36.732Z,18.97
2023-01-26T11:37:38.784Z,22.23
2023-01-26T11:40:37.905Z,18.73
2023-01-26T11:43:07.045Z,19.17
2023-01-26T11:45:41.281Z,17.60
2023-01-26T11:48:19.899Z,18.03
2023-01-26T11:51:00.123Z,19.53
2023-01-26T11:53:48.607Z,18.50
2023-01-26T11:56:29.295Z,18.87
2023-01-26T11:59:05.635Z,18.30
2023-01-26T12:01:46.033Z,18.63
2023-01-26T12:04:20.222Z,16.43
2023-01-26T12:06:53.545Z,16.30
2023-01-26T12:09:23.598Z,12.77
2023-01-26T12:11:57.430Z,12.60
2023-01-26T12:14:31.667Z,11.13
2023-01-26T12:17:18.525Z,12.10
2023-01-26T12:20:04.443Z,11.73
2023-01-26T12:22:40.119Z,12.00
2023-01-26T12:25:35.349Z,11.47
2023-01-26T12:28:02.150Z,12.07
2023-01-26T12:30:35.471Z,10.60
2023-01-26T12:33:02.321Z,12.23
2023-01-26T12:35:47.702Z,11.17
2023-01-26T12:38:18.143Z,11.23
2023-01-26T12:40:51.147Z,11.80
2023-01-26T12:43:21.258Z,10.80
2023-01-26T12:45:50.644Z,10.47
2023-01-26T12:48:23.383Z,11.70
2023-01-26T12:50:58.043Z,9.53
2023-01-26T12:53:34.393Z,11.20
2023-01-26T12:56:15.405Z,11.00
2023-01-26T12:58:46.969Z,11.80
2023-01-26T13:01:18.492Z,11.10
2023-01-26T13:03:51.390Z,11.80
2023-01-26T13:06:28.460Z,11.20
2023-01-26T13:08:58.253Z,10.17
2023-01-26T13:11:55.213Z,10.43
2023-01-26T13:14:31.068Z,10.50
2023-01-26T13:17:16.989Z,9.50
2023-01-26T13:19:43.567Z,11.20
2023-01-26T13:22:19.744Z,9.00
2023-01-26T13:24:56.613Z,10.00
2023-01-26T13:27:29.492Z,10.00
2023-01-26T13:29:56.518Z,9.30
2023-01-26T13:32:23.221Z,9.03
2023-01-26T13:34:57.869Z,8.80
2023-01-26T13:37:36.931Z,9.40
2023-01-26T13:40:10.815Z,8.30
2023-01-26T13:43:26.698Z,9.57
2023-01-26T13:46:18.888Z,8.93
2023-01-26T13:48:49.367Z,7.90
2023-01-26T13:51:37.981Z,7.50
2023-01-26T13:54:05.355Z,6.93
2023-01-26T13:56:40.770Z,7.37
2023-01-26T13:59:19.459Z,7.03
2023-01-26T14:01:50.405Z,6.60
2023-01-26T14:04:31.449Z,7.73
2023-01-26T14:07:01.939Z,7.60
2023-01-26T14:09:32.146Z,8.03
2023-01-26T14:12:01.968Z,7.63
2023-01-26T14:14:32.447Z,8.33
2023-01-26T14:17:00.490Z,8.70
2023-01-26T14:19:28.611Z,7.60
2023-01-26T14:22:01.378Z,9.43
2023-01-26T14:24:39.578Z,8.60
2023-01-26T14:27:06.893Z,7.93
2023-01-26T14:29:38.168Z,8.50
2023-01-26T14:32:05.184Z,9.10
2023-01-26T14:34:33.883Z,7.83
2023-01-26T14:37:14.905Z,8.73
2023-01-26T14:39:44.837Z,8.60
2023-01-26T14:42:15.955Z,10.27
2023-01-26T14:44:42.734Z,11.83
2023-01-26T14:47:23.352Z,11.50
2023-01-26T14:50:06.336Z,9.90
2023-01-26T14:52:35.725Z,14.77
2023-01-26T14:55:08.783Z,12.80
2023-01-26T14:57:35.422Z,11.70
2023-01-26T15:00:02.601Z,18.30
2023-01-26T15:02:43.400Z,19.63
2023-01-26T15:05:21.297Z,16.77
2023-01-26T15:07:55.911Z,12.43
2023-01-26T15:10:42.811Z,18.07
2023-01-26T15:13:15.656Z,9.60
2023-01-26T15:15:48.755Z,14.23
2023-01-26T15:18:21.713Z,9.93
2023-01-26T15:21:05.020Z,10.00
2023-01-26T15:23:36.469Z,9.43
2023-01-26T15:26:10.517Z,9.00
2023-01-26T15:28:37.795Z,9.70
2023-01-26T15:31:04.817Z,8.50
2023-01-26T15:33:46.968Z,8.00
2023-01-26T15:36:27.547Z,7.30
2023-01-26T15:38:59.696Z,8.27
2023-01-26T15:41:27.097Z,11.60
2023-01-26T15:43:53.893Z,8.33
2023-01-26T15:46:20.657Z,10.07
2023-01-26T15:48:47.278Z,9.60
2023-01-26T15:51:15.010Z,7.80
2023-01-26T15:53:41.683Z,7.33
2023-01-26T15:56:13.438Z,6.77
2023-01-26T15:58:40.361Z,11.70
2023-01-26T16:01:08.146Z,11.70
2023-01-26T16:03:34.831Z,9.60
2023-01-26T16:06:01.947Z,8.63
2023-01-26T16:08:28.616Z,8.20
2023-01-26T16:10:56.857Z,10.83
2023-01-26T16:13:23.754Z,9.80
2023-01-26T16:15:52.324Z,9.27
2023-01-26T16:18:19.828Z,9.03
2023-01-26T16:20:47.682Z,10.70
2023-01-26T16:23:20.416Z,9.50
2023-01-26T16:25:47.991Z,11.70
2023-01-26T16:28:15.187Z,12.87
2023-01-26T16:30:46.453Z,11.70
2023-01-26T16:33:16.748Z,10.53
2023-01-26T16:35:43.763Z,9.80
2023-01-26T16:38:13.675Z,9.30
2023-01-26T16:40:41.821Z,9.47
2023-01-26T16:43:24.508Z,11.47
2023-01-26T16:45:52.488Z,9.97
2023-01-26T16:48:20.388Z,8.37
2023-01-26T16:50:51.512Z,9.10
2023-01-26T16:53:19.201Z,9.07
2023-01-26T16:55:46.200Z,9.37
2023-01-26T16:58:13.129Z,8.20
2023-01-26T17:00:40.497Z,10.07
2023-01-26T17:03:10.315Z,10.00
2023-01-26T17:05:37.306Z,11.63
2023-01-26T17:08:04.262Z,10.93
2023-01-26T17:10:31.128Z,11.40
2023-01-26T17:12:57.811Z,12.87
2023-01-26T17:15:28.264Z,15.37
2023-01-26T17:17:55.143Z,14.50
2023-01-26T17:20:21.779Z,17.27
2023-01-26T17:22:48.728Z,28.90
2023-01-26T17:25:17.378Z,22.03
2023-01-26T17:27:46.078Z,19.10
2023-01-26T17:30:13.021Z,16.67
2023-01-26T17:32:39.653Z,15.30
2023-01-26T17:35:06.507Z,14.80
2023-01-26T17:37:33.144Z,14.30
2023-01-26T17:39:59.879Z,12.60
2023-01-26T17:42:26.887Z,13.40
2023-01-26T17:44:53.559Z,13.90
2023-01-26T17:47:20.207Z,14.93
2023-01-26T17:49:46.873Z,14.50
2023-01-26T17:52:14.413Z,15.03
2023-01-26T17:54:41.414Z,16.17
2023-01-26T17:57:08.309Z,15.30
2023-01-26T17:59:34.994Z,14.67
2023-01-26T18:02:01.703Z,14.07
2023-01-26T18:04:30.475Z,14.57
2023-01-26T18:06:57.987Z,16.40
2023-01-26T18:09:24.934Z,19.27
2023-01-26T18:11:51.557Z,16.97
2023-01-26T18:14:18.165Z,15.60
2023-01-26T18:16:44.834Z,12.23
2023-01-26T18:19:11.507Z,14.00
2023-01-26T18:21:38.248Z,11.97
2023-01-26T18:24:06.045Z,13.47
2023-01-26T18:26:36.645Z,13.43
2023-01-26T18:29:05.035Z,18.23
2023-01-26T18:31:37.466Z,13.10
2023-01-26T18:34:04.526Z,12.90
2023-01-26T18:36:31.181Z,14.97
2023-01-26T18:39:03.890Z,14.97
2023-01-26T18:41:31.083Z,12.97
2023-01-26T18:43:59.372Z,14.60
2023-01-26T18:46:27.637Z,12.87
2023-01-26T18:48:55.263Z,13.83
2023-01-26T18:51:22.702Z,12.80
2023-01-26T18:53:49.537Z,12.00
2023-01-26T18:56:16.862Z,12.63
2023-01-26T18:58:43.554Z,12.60
2023-01-26T19:01:12.999Z,12.37
2023-01-26T19:03:47.390Z,12.13
2023-01-26T19:06:20.109Z,11.90
2023-01-26T19:08:57.613Z,14.23
2023-01-26T19:11:27.365Z,14.80
2023-01-26T19:13:54.505Z,15.47
2023-01-26T19:16:21.724Z,17.33
2023-01-26T19:18:48.430Z,15.20
2023-01-26T19:21:15.439Z,14.90
2023-01-26T19:23:42.776Z,15.30
2023-01-26T19:26:11.541Z,16.53
2023-01-26T19:28:41.281Z,19.23
2023-01-26T19:31:09.070Z,16.60
2023-01-26T19:33:36.443Z,17.10
2023-01-26T19:36:04.813Z,15.83
2023-01-26T19:38:33.192Z,15.50
2023-01-26T19:41:01.584Z,15.07
2023-01-26T19:43:28.529Z,15.47
2023-01-26T19:45:56.401Z,16.17
2023-01-26T19:48:25.571Z,17.23
2023-01-26T19:51:08.822Z,16.03
2023-01-26T19:53:37.689Z,15.37
2023-01-26T19:56:10.249Z,16.77
2023-01-26T19:58:37.513Z,18.40
2023-01-26T20:01:06.695Z,20.70
2023-01-26T20:03:34.114Z,17.00
2023-01-26T20:06:01.141Z,17.60
2023-01-26T20:08:28.821Z,17.70
2023-01-26T20:11:02.711Z,16.07
2023-01-26T20:13:29.656Z,18.10
2023-01-26T20:15:56.945Z,17.80
2023-01-26T20:18:24.165Z,18.70
2023-01-26T20:20:51.747Z,18.43
2023-01-26T20:23:18.989Z,19.73
2023-01-26T20:25:45.800Z,17.50
2023-01-26T20:28:12.979Z,17.80
2023-01-26T20:30:40.069Z,17.00
2023-01-26T20:33:07.778Z,16.03
2023-01-26T20:35:35.116Z,21.93
2023-01-26T20:38:01.711Z,17.20
2023-01-26T20:40:29.072Z,17.07
2023-01-26T20:42:55.886Z,16.10
2023-01-26T20:45:24.078Z,17.50
2023-01-26T20:47:51.758Z,15.67
2023-01-26T20:50:18.707Z,16.60
2023-01-26T20:52:45.484Z,16.53
2023-01-26T20:55:13.208Z,17.77
2023-01-26T20:57:39.964Z,17.50
2023-01-26T21:00:07.338Z,18.33
2023-01-26T21:02:33.954Z,16.67
2023-01-26T21:05:00.744Z,17.90
2023-01-26T21:07:28.578Z,19.53
2023-01-26T21:09:55.286Z,18.93
2023-01-26T21:12:22.010Z,15.90
2023-01-26T21:14:48.818Z,14.50
2023-01-26T21:17:17.456Z,14.77
2023-01-26T21:19:44.088Z,14.27
2023-01-26T21:22:10.850Z,14.37
2023-01-26T21:24:37.959Z,15.33
2023-01-26T21:27:06.746Z,14.63
2023-01-26T21:29:33.609Z,15.20
2023-01-26T21:32:00.193Z,15.70
2023-01-26T21:34:26.764Z,14.73
2023-01-26T21:36:53.418Z,14.57
2023-01-26T21:39:22.133Z,14.40
2023-01-26T21:41:58.974Z,14.33
2023-01-26T21:44:30.317Z,14.47
2023-01-26T21:47:03.066Z,14.60
2023-01-26T21:49:30.292Z,14.97
2023-01-26T21:52:16.038Z,12.20
2023-01-26T21:54:42.737Z,13.43
2023-01-26T21:57:29.590Z,12.70
2023-01-26T21:59:56.368Z,12.20
2023-01-26T22:02:23.106Z,13.00
2023-01-26T22:04:50.557Z,12.63
2023-01-26T22:07:17.200Z,12.97
2023-01-26T22:09:44.127Z,13.10
2023-01-26T22:12:10.753Z,13.30
2023-01-26T22:14:37.378Z,12.80
2023-01-26T22:17:03.964Z,13.27
2023-01-26T22:19:30.670Z,12.03
2023-01-26T22:21:57.593Z,12.07
2023-01-26T22:24:24.623Z,11.97
2023-01-26T22:26:51.281Z,12.93
2023-01-26T22:29:17.855Z,13.07
2023-01-26T22:31:44.637Z,12.27
2023-01-26T22:34:11.956Z,12.87
2023-01-26T22:36:38.992Z,13.40
2023-01-26T22:39:05.684Z,12.50
2023-01-26T22:41:32.495Z,12.60
2023-01-26T22:44:00.164Z,13.63
2023-01-26T22:46:28.668Z,12.90
2023-01-26T22:48:57.224Z,13.67
2023-01-26T22:51:26.758Z,12.10
2023-01-26T22:53:54.567Z,14.17
2023-01-26T22:56:21.816Z,13.53
2023-01-26T22:58:58.877Z,12.10
2023-01-26T23:01:28.383Z,12.00
2023-01-26T23:03:55.669Z,13.00
2023-01-26T23:06:22.532Z,12.17
2023-01-26T23:08:49.590Z,12.00
2023-01-26T23:11:19.305Z,11.93
2023-01-26T23:13:47.253Z,11.10
2023-01-26T23:16:14.293Z,11.03
2023-01-26T23:18:41.506Z,11.07
2023-01-26T23:21:08.437Z,10.77
2023-01-26T23:23:35.231Z,11.00
2023-01-26T23:26:02.113Z,11.33
2023-01-26T23:28:32.021Z,10.87
2023-01-26T23:30:59.931Z,12.53
2023-01-26T23:33:28.339Z,11.60
2023-01-26T23:35:55.259Z,11.47
2023-01-26T23:38:25.722Z,11.03
2023-01-26T23:40:53.086Z,12.07
2023-01-26T23:43:20.026Z,11.70
2023-01-26T23:45:47.726Z,10.80
2023-01-26T23:48:14.711Z,10.97
2023-01-26T23:50:41.771Z,10.70
2023-01-26T23:53:08.792Z,11.80
2023-01-26T23:55:36.001Z,13.23
2023-01-26T23:58:02.605Z,10.40
